sensor_id;sensor_type;location;lat;lon;timestamp;P1;durP1;ratioP1;P2;durP2;ratioP2
79149;SDS011;68563;45.644;13.782;2023-03-23T00:00:57;10.73;;;6.32;;
79149;SDS011;68563;45.644;13.782;2023-03-23T00:03:23;10.32;;;6.18;;
79149;SDS011;68563;45.644;13.782;2023-03-23T00:05:51;9.73;;;5.43;;
79149;SDS011;68563;45.644;13.782;2023-03-23T00:08:17;10.13;;;5.80;;
79149;SDS011;68563;45.644;13.782;2023-03-23T00:10:47;8.93;;;6.07;;
79149;SDS011;68563;45.644;13.782;2023-03-23T00:13:13;10.15;;;5.93;;
79149;SDS011;68563;45.644;13.782;2023-03-23T00:15:44;10.50;;;5.93;;
79149;SDS011;68563;45.644;13.782;2023-03-23T00:18:10;9.07;;;5.72;;
79149;SDS011;68563;45.644;13.782;2023-03-23T00:20:45;10.38;;;6.20;;
79149;SDS011;68563;45.644;13.782;2023-03-23T00:23:14;10.07;;;6.95;;
79149;SDS011;68563;45.644;13.782;2023-03-23T00:25:44;11.90;;;6.95;;
79149;SDS011;68563;45.644;13.782;2023-03-23T00:30:39;9.15;;;5.90;;
79149;SDS011;68563;45.644;13.782;2023-03-23T00:33:07;8.35;;;4.75;;
79149;SDS011;68563;45.644;13.782;2023-03-23T00:35:33;7.95;;;4.85;;
79149;SDS011;68563;45.644;13.782;2023-03-23T00:38:01;7.78;;;4.35;;
79149;SDS011;68563;45.644;13.782;2023-03-23T00:40:27;7.07;;;4.13;;
79149;SDS011;68563;45.644;13.782;2023-03-23T00:42:53;5.97;;;4.10;;
79149;SDS011;68563;45.644;13.782;2023-03-23T00:45:18;6.45;;;3.80;;
79149;SDS011;68563;45.644;13.782;2023-03-23T00:47:44;5.88;;;3.60;;
79149;SDS011;68563;45.644;13.782;2023-03-23T00:50:11;7.90;;;4.18;;
79149;SDS011;68563;45.644;13.782;2023-03-23T00:52:38;5.40;;;3.72;;
79149;SDS011;68563;45.644;13.782;2023-03-23T00:55:05;5.70;;;3.65;;
79149;SDS011;68563;45.644;13.782;2023-03-23T00:57:31;4.93;;;3.30;;
79149;SDS011;68563;45.644;13.782;2023-03-23T00:59:56;6.55;;;3.75;;
79149;SDS011;68563;45.644;13.782;2023-03-23T01:02:22;7.05;;;3.70;;
79149;SDS011;68563;45.644;13.782;2023-03-23T01:04:50;4.70;;;3.47;;
79149;SDS011;68563;45.644;13.782;2023-03-23T01:07:17;5.28;;;3.20;;
79149;SDS011;68563;45.644;13.782;2023-03-23T01:09:43;6.88;;;4.03;;
79149;SDS011;68563;45.644;13.782;2023-03-23T01:12:10;6.38;;;4.07;;
79149;SDS011;68563;45.644;13.782;2023-03-23T01:14:36;6.45;;;3.80;;
79149;SDS011;68563;45.644;13.782;2023-03-23T01:17:02;5.35;;;3.70;;
79149;SDS011;68563;45.644;13.782;2023-03-23T01:19:27;6.13;;;4.18;;
79149;SDS011;68563;45.644;13.782;2023-03-23T01:21:53;5.95;;;4.10;;
79149;SDS011;68563;45.644;13.782;2023-03-23T01:24:18;4.90;;;3.65;;
79149;SDS011;68563;45.644;13.782;2023-03-23T01:26:43;6.43;;;3.78;;
79149;SDS011;68563;45.644;13.782;2023-03-23T01:29:09;5.47;;;3.88;;
79149;SDS011;68563;45.644;13.782;2023-03-23T01:31:35;5.07;;;3.70;;
79149;SDS011;68563;45.644;13.782;2023-03-23T01:34:02;5.28;;;3.85;;
79149;SDS011;68563;45.644;13.782;2023-03-23T01:36:28;6.38;;;4.13;;
79149;SDS011;68563;45.644;13.782;2023-03-23T01:38:57;6.15;;;4.07;;
79149;SDS011;68563;45.644;13.782;2023-03-23T01:41:26;7.10;;;4.60;;
79149;SDS011;68563;45.644;13.782;2023-03-23T01:44:08;6.80;;;4.38;;
79149;SDS011;68563;45.644;13.782;2023-03-23T01:46:53;6.63;;;4.40;;
79149;SDS011;68563;45.644;13.782;2023-03-23T01:49:38;7.32;;;4.80;;
79149;SDS011;68563;45.644;13.782;2023-03-23T01:52:09;6.45;;;4.25;;
79149;SDS011;68563;45.644;13.782;2023-03-23T01:54:42;5.55;;;3.92;;
79149;SDS011;68563;45.644;13.782;2023-03-23T01:57:11;7.75;;;4.20;;
79149;SDS011;68563;45.644;13.782;2023-03-23T01:59:40;5.72;;;4.20;;
79149;SDS011;68563;45.644;13.782;2023-03-23T02:02:07;5.60;;;4.20;;
79149;SDS011;68563;45.644;13.782;2023-03-23T02:04:35;6.70;;;4.22;;
79149;SDS011;68563;45.644;13.782;2023-03-23T02:07:01;5.65;;;4.47;;
79149;SDS011;68563;45.644;13.782;2023-03-23T02:09:28;4.65;;;3.95;;
79149;SDS011;68563;45.644;13.782;2023-03-23T02:11:53;7.22;;;3.88;;
79149;SDS011;68563;45.644;13.782;2023-03-23T02:14:20;6.57;;;4.30;;
79149;SDS011;68563;45.644;13.782;2023-03-23T02:30:47;5.38;;;4.25;;
79149;SDS011;68563;45.644;13.782;2023-03-23T02:33:36;7.43;;;4.30;;
79149;SDS011;68563;45.644;13.782;2023-03-23T02:36:10;5.80;;;4.18;;
79149;SDS011;68563;45.644;13.782;2023-03-23T02:41:28;7.57;;;4.30;;
79149;SDS011;68563;45.644;13.782;2023-03-23T02:43:57;7.20;;;4.47;;
79149;SDS011;68563;45.644;13.782;2023-03-23T02:46:23;5.43;;;4.00;;
79149;SDS011;68563;45.644;13.782;2023-03-23T02:48:50;6.20;;;4.13;;
79149;SDS011;68563;45.644;13.782;2023-03-23T02:51:19;5.90;;;4.32;;
79149;SDS011;68563;45.644;13.782;2023-03-23T02:53:45;8.40;;;4.50;;
79149;SDS011;68563;45.644;13.782;2023-03-23T02:56:14;7.53;;;4.65;;
79149;SDS011;68563;45.644;13.782;2023-03-23T02:58:41;6.32;;;4.38;;
79149;SDS011;68563;45.644;13.782;2023-03-23T03:03:50;6.97;;;4.88;;
79149;SDS011;68563;45.644;13.782;2023-03-23T03:06:27;5.93;;;4.50;;
79149;SDS011;68563;45.644;13.782;2023-03-23T03:09:11;5.32;;;4.07;;
79149;SDS011;68563;45.644;13.782;2023-03-23T03:11:46;6.82;;;4.28;;
79149;SDS011;68563;45.644;13.782;2023-03-23T03:14:21;7.50;;;4.18;;
79149;SDS011;68563;45.644;13.782;2023-03-23T03:17:03;5.82;;;4.40;;
79149;SDS011;68563;45.644;13.782;2023-03-23T03:19:34;6.93;;;4.40;;
79149;SDS011;68563;45.644;13.782;2023-03-23T03:22:04;8.25;;;4.97;;
79149;SDS011;68563;45.644;13.782;2023-03-23T03:24:30;5.88;;;4.57;;
79149;SDS011;68563;45.644;13.782;2023-03-23T03:26:58;8.02;;;4.90;;
79149;SDS011;68563;45.644;13.782;2023-03-23T03:29:29;6.75;;;4.65;;
79149;SDS011;68563;45.644;13.782;2023-03-23T03:31:57;5.90;;;4.18;;
79149;SDS011;68563;45.644;13.782;2023-03-23T03:34:25;6.47;;;4.68;;
79149;SDS011;68563;45.644;13.782;2023-03-23T03:36:51;5.80;;;4.32;;
79149;SDS011;68563;45.644;13.782;2023-03-23T03:39:19;7.35;;;4.22;;
79149;SDS011;68563;45.644;13.782;2023-03-23T03:41:46;6.43;;;4.15;;
79149;SDS011;68563;45.644;13.782;2023-03-23T03:44:12;5.25;;;4.05;;
79149;SDS011;68563;45.644;13.782;2023-03-23T03:46:38;5.78;;;4.57;;
79149;SDS011;68563;45.644;13.782;2023-03-23T03:49:05;5.28;;;3.85;;
79149;SDS011;68563;45.644;13.782;2023-03-23T03:51:32;7.13;;;4.38;;
79149;SDS011;68563;45.644;13.782;2023-03-23T03:53:59;5.55;;;3.92;;
79149;SDS011;68563;45.644;13.782;2023-03-23T03:56:25;5.35;;;4.13;;
79149;SDS011;68563;45.644;13.782;2023-03-23T03:58:51;5.70;;;4.25;;
79149;SDS011;68563;45.644;13.782;2023-03-23T04:01:17;6.18;;;4.10;;
79149;SDS011;68563;45.644;13.782;2023-03-23T04:03:47;6.95;;;4.15;;
79149;SDS011;68563;45.644;13.782;2023-03-23T04:06:13;5.90;;;4.35;;
79149;SDS011;68563;45.644;13.782;2023-03-23T04:08:39;6.28;;;4.72;;
79149;SDS011;68563;45.644;13.782;2023-03-23T04:11:07;7.50;;;5.20;;
79149;SDS011;68563;45.644;13.782;2023-03-23T04:13:33;8.32;;;5.25;;
79149;SDS011;68563;45.644;13.782;2023-03-23T04:15:59;6.03;;;4.82;;
79149;SDS011;68563;45.644;13.782;2023-03-23T04:18:25;5.80;;;4.22;;
79149;SDS011;68563;45.644;13.782;2023-03-23T04:20:50;7.18;;;4.57;;
79149;SDS011;68563;45.644;13.782;2023-03-23T04:23:16;7.07;;;4.20;;
79149;SDS011;68563;45.644;13.782;2023-03-23T04:25:47;5.90;;;4.28;;
79149;SDS011;68563;45.644;13.782;2023-03-23T04:28:14;4.75;;;3.90;;
79149;SDS011;68563;45.644;13.782;2023-03-23T04:30:44;6.55;;;4.15;;
79149;SDS011;68563;45.644;13.782;2023-03-23T04:33:13;6.50;;;4.18;;
79149;SDS011;68563;45.644;13.782;2023-03-23T04:35:40;5.82;;;4.50;;
79149;SDS011;68563;45.644;13.782;2023-03-23T04:38:07;7.00;;;4.32;;
79149;SDS011;68563;45.644;13.782;2023-03-23T04:40:37;9.32;;;3.90;;
79149;SDS011;68563;45.644;13.782;2023-03-23T04:43:04;5.38;;;3.65;;
79149;SDS011;68563;45.644;13.782;2023-03-23T04:45:30;5.82;;;3.83;;
79149;SDS011;68563;45.644;13.782;2023-03-23T04:47:57;6.15;;;4.05;;
79149;SDS011;68563;45.644;13.782;2023-03-23T04:50:23;6.40;;;3.95;;
79149;SDS011;68563;45.644;13.782;2023-03-23T04:52:52;8.30;;;3.92;;
79149;SDS011;68563;45.644;13.782;2023-03-23T04:55:22;5.18;;;3.75;;
79149;SDS011;68563;45.644;13.782;2023-03-23T04:57:48;8.55;;;4.20;;
79149;SDS011;68563;45.644;13.782;2023-03-23T05:00:13;7.38;;;3.92;;
79149;SDS011;68563;45.644;13.782;2023-03-23T05:02:41;6.15;;;4.10;;
79149;SDS011;68563;45.644;13.782;2023-03-23T05:05:08;7.82;;;3.85;;
79149;SDS011;68563;45.644;13.782;2023-03-23T05:07:36;6.68;;;4.05;;
79149;SDS011;68563;45.644;13.782;2023-03-23T05:10:03;5.85;;;3.85;;
79149;SDS011;68563;45.644;13.782;2023-03-23T05:12:29;4.57;;;3.50;;
79149;SDS011;68563;45.644;13.782;2023-03-23T05:14:55;5.82;;;3.72;;
79149;SDS011;68563;45.644;13.782;2023-03-23T05:17:20;4.03;;;3.33;;
79149;SDS011;68563;45.644;13.782;2023-03-23T05:19:49;4.25;;;3.35;;
79149;SDS011;68563;45.644;13.782;2023-03-23T05:22:15;6.70;;;3.70;;
79149;SDS011;68563;45.644;13.782;2023-03-23T05:24:42;5.45;;;3.90;;
79149;SDS011;68563;45.644;13.782;2023-03-23T05:27:08;5.20;;;3.40;;
79149;SDS011;68563;45.644;13.782;2023-03-23T05:29:34;7.25;;;3.72;;
79149;SDS011;68563;45.644;13.782;2023-03-23T05:32:02;7.43;;;3.63;;
79149;SDS011;68563;45.644;13.782;2023-03-23T05:34:32;8.27;;;3.42;;
79149;SDS011;68563;45.644;13.782;2023-03-23T05:36:59;7.13;;;3.35;;
79149;SDS011;68563;45.644;13.782;2023-03-23T05:39:26;5.47;;;3.53;;
79149;SDS011;68563;45.644;13.782;2023-03-23T05:41:52;5.50;;;3.42;;
79149;SDS011;68563;45.644;13.782;2023-03-23T05:44:18;11.57;;;4.03;;
79149;SDS011;68563;45.644;13.782;2023-03-23T05:46:44;7.00;;;3.63;;
79149;SDS011;68563;45.644;13.782;2023-03-23T05:49:09;5.47;;;3.92;;
79149;SDS011;68563;45.644;13.782;2023-03-23T05:51:35;5.53;;;3.60;;
79149;SDS011;68563;45.644;13.782;2023-03-23T05:54:01;5.53;;;3.58;;
79149;SDS011;68563;45.644;13.782;2023-03-23T05:56:27;8.13;;;4.03;;
79149;SDS011;68563;45.644;13.782;2023-03-23T05:58:57;6.43;;;3.42;;
79149;SDS011;68563;45.644;13.782;2023-03-23T06:01:23;8.52;;;3.90;;
79149;SDS011;68563;45.644;13.782;2023-03-23T06:03:49;7.30;;;4.28;;
79149;SDS011;68563;45.644;13.782;2023-03-23T06:06:18;6.03;;;4.10;;
79149;SDS011;68563;45.644;13.782;2023-03-23T06:08:45;6.20;;;4.55;;
79149;SDS011;68563;45.644;13.782;2023-03-23T06:11:10;5.93;;;4.15;;
79149;SDS011;68563;45.644;13.782;2023-03-23T06:13:36;7.53;;;4.05;;
79149;SDS011;68563;45.644;13.782;2023-03-23T06:16:02;5.45;;;3.72;;
79149;SDS011;68563;45.644;13.782;2023-03-23T06:18:29;5.57;;;4.05;;
79149;SDS011;68563;45.644;13.782;2023-03-23T06:20:56;4.80;;;3.80;;
79149;SDS011;68563;45.644;13.782;2023-03-23T06:23:40;8.25;;;4.35;;
79149;SDS011;68563;45.644;13.782;2023-03-23T06:26:07;7.07;;;4.50;;
79149;SDS011;68563;45.644;13.782;2023-03-23T06:28:33;6.05;;;3.90;;
79149;SDS011;68563;45.644;13.782;2023-03-23T06:31:03;6.00;;;3.95;;
79149;SDS011;68563;45.644;13.782;2023-03-23T06:33:31;5.68;;;3.50;;
79149;SDS011;68563;45.644;13.782;2023-03-23T06:35:59;6.85;;;4.82;;
79149;SDS011;68563;45.644;13.782;2023-03-23T06:38:25;9.93;;;5.18;;
79149;SDS011;68563;45.644;13.782;2023-03-23T06:40:54;10.50;;;5.10;;
79149;SDS011;68563;45.644;13.782;2023-03-23T06:43:20;7.45;;;4.63;;
79149;SDS011;68563;45.644;13.782;2023-03-23T06:45:46;8.57;;;5.07;;
79149;SDS011;68563;45.644;13.782;2023-03-23T06:48:11;8.73;;;5.57;;
79149;SDS011;68563;45.644;13.782;2023-03-23T06:50:37;6.82;;;5.20;;
79149;SDS011;68563;45.644;13.782;2023-03-23T06:53:03;9.43;;;5.82;;
79149;SDS011;68563;45.644;13.782;2023-03-23T06:55:28;10.00;;;6.65;;
79149;SDS011;68563;45.644;13.782;2023-03-23T06:57:54;11.70;;;7.57;;
79149;SDS011;68563;45.644;13.782;2023-03-23T07:00:19;10.50;;;7.18;;
79149;SDS011;68563;45.644;13.782;2023-03-23T07:02:45;13.45;;;7.65;;
79149;SDS011;68563;45.644;13.782;2023-03-23T07:05:12;10.05;;;6.95;;
79149;SDS011;68563;45.644;13.782;2023-03-23T07:07:38;9.43;;;7.20;;
79149;SDS011;68563;45.644;13.782;2023-03-23T07:10:05;11.15;;;7.82;;
79149;SDS011;68563;45.644;13.782;2023-03-23T07:12:32;11.32;;;7.85;;
79149;SDS011;68563;45.644;13.782;2023-03-23T07:14:58;11.98;;;7.45;;
79149;SDS011;68563;45.644;13.782;2023-03-23T07:17:23;9.93;;;7.30;;
79149;SDS011;68563;45.644;13.782;2023-03-23T07:19:49;16.30;;;8.55;;
79149;SDS011;68563;45.644;13.782;2023-03-23T07:22:15;13.88;;;8.18;;
79149;SDS011;68563;45.644;13.782;2023-03-23T07:24:40;13.13;;;8.43;;
79149;SDS011;68563;45.644;13.782;2023-03-23T07:27:06;10.10;;;7.72;;
79149;SDS011;68563;45.644;13.782;2023-03-23T07:29:32;13.60;;;8.43;;
79149;SDS011;68563;45.644;13.782;2023-03-23T07:32:00;9.73;;;7.68;;
79149;SDS011;68563;45.644;13.782;2023-03-23T07:34:26;12.90;;;8.75;;
79149;SDS011;68563;45.644;13.782;2023-03-23T07:36:52;13.52;;;8.52;;
79149;SDS011;68563;45.644;13.782;2023-03-23T07:39:18;12.75;;;8.43;;
79149;SDS011;68563;45.644;13.782;2023-03-23T07:41:44;12.05;;;8.52;;
79149;SDS011;68563;45.644;13.782;2023-03-23T07:44:09;16.92;;;8.35;;
79149;SDS011;68563;45.644;13.782;2023-03-23T07:46:35;16.88;;;9.88;;
79149;SDS011;68563;45.644;13.782;2023-03-23T07:49:00;15.77;;;10.80;;
79149;SDS011;68563;45.644;13.782;2023-03-23T07:51:30;15.27;;;9.95;;
79149;SDS011;68563;45.644;13.782;2023-03-23T07:53:56;19.73;;;10.00;;
79149;SDS011;68563;45.644;13.782;2023-03-23T07:56:22;14.77;;;10.30;;
79149;SDS011;68563;45.644;13.782;2023-03-23T07:58:47;15.43;;;9.65;;
79149;SDS011;68563;45.644;13.782;2023-03-23T08:01:14;15.57;;;9.70;;
79149;SDS011;68563;45.644;13.782;2023-03-23T08:03:40;14.55;;;9.90;;
79149;SDS011;68563;45.644;13.782;2023-03-23T08:06:05;14.65;;;9.23;;
79149;SDS011;68563;45.644;13.782;2023-03-23T08:08:31;16.48;;;9.80;;
79149;SDS011;68563;45.644;13.782;2023-03-23T08:10:57;13.38;;;9.18;;
79149;SDS011;68563;45.644;13.782;2023-03-23T08:13:24;13.43;;;9.50;;
79149;SDS011;68563;45.644;13.782;2023-03-23T08:15:49;18.40;;;8.88;;
79149;SDS011;68563;45.644;13.782;2023-03-23T08:18:15;13.25;;;8.32;;
79149;SDS011;68563;45.644;13.782;2023-03-23T08:20:40;11.52;;;8.43;;
79149;SDS011;68563;45.644;13.782;2023-03-23T08:23:06;13.35;;;9.10;;
79149;SDS011;68563;45.644;13.782;2023-03-23T08:25:32;11.52;;;8.48;;
79149;SDS011;68563;45.644;13.782;2023-03-23T08:27:59;11.35;;;8.15;;
79149;SDS011;68563;45.644;13.782;2023-03-23T08:30:26;11.65;;;7.95;;
79149;SDS011;68563;45.644;13.782;2023-03-23T08:32:55;13.27;;;8.02;;
79149;SDS011;68563;45.644;13.782;2023-03-23T08:35:21;9.77;;;7.10;;
79149;SDS011;68563;45.644;13.782;2023-03-23T08:37:47;9.48;;;6.85;;
79149;SDS011;68563;45.644;13.782;2023-03-23T08:40:16;10.18;;;6.53;;
79149;SDS011;68563;45.644;13.782;2023-03-23T08:42:44;10.00;;;7.30;;
79149;SDS011;68563;45.644;13.782;2023-03-23T08:45:11;10.38;;;7.53;;
79149;SDS011;68563;45.644;13.782;2023-03-23T08:47:38;15.45;;;7.30;;
79149;SDS011;68563;45.644;13.782;2023-03-23T08:50:04;9.15;;;6.78;;
79149;SDS011;68563;45.644;13.782;2023-03-23T08:52:31;9.48;;;6.28;;
79149;SDS011;68563;45.644;13.782;2023-03-23T08:54:56;10.00;;;6.05;;
79149;SDS011;68563;45.644;13.782;2023-03-23T08:57:22;9.15;;;6.38;;
79149;SDS011;68563;45.644;13.782;2023-03-23T08:59:49;8.50;;;6.07;;
79149;SDS011;68563;45.644;13.782;2023-03-23T09:02:14;11.85;;;5.60;;
79149;SDS011;68563;45.644;13.782;2023-03-23T09:04:41;10.20;;;5.70;;
79149;SDS011;68563;45.644;13.782;2023-03-23T09:07:08;9.15;;;5.60;;
79149;SDS011;68563;45.644;13.782;2023-03-23T09:09:38;8.68;;;6.07;;
79149;SDS011;68563;45.644;13.782;2023-03-23T09:12:08;12.85;;;5.55;;
79149;SDS011;68563;45.644;13.782;2023-03-23T09:14:34;10.27;;;5.47;;
79149;SDS011;68563;45.644;13.782;2023-03-23T09:17:00;9.50;;;5.18;;
79149;SDS011;68563;45.644;13.782;2023-03-23T09:19:26;11.60;;;5.32;;
79149;SDS011;68563;45.644;13.782;2023-03-23T09:21:52;16.98;;;6.60;;
79149;SDS011;68563;45.644;13.782;2023-03-23T09:24:17;9.40;;;5.60;;
79149;SDS011;68563;45.644;13.782;2023-03-23T09:26:44;8.80;;;5.50;;
79149;SDS011;68563;45.644;13.782;2023-03-23T09:29:10;7.40;;;5.32;;
79149;SDS011;68563;45.644;13.782;2023-03-23T09:31:37;8.57;;;6.03;;
79149;SDS011;68563;45.644;13.782;2023-03-23T09:34:05;9.07;;;6.03;;
79149;SDS011;68563;45.644;13.782;2023-03-23T09:36:31;8.73;;;5.63;;
79149;SDS011;68563;45.644;13.782;2023-03-23T09:38:57;10.68;;;6.45;;
79149;SDS011;68563;45.644;13.782;2023-03-23T09:49:14;9.18;;;6.43;;
79149;SDS011;68563;45.644;13.782;2023-03-23T09:52:07;8.70;;;6.07;;
79149;SDS011;68563;45.644;13.782;2023-03-23T09:54:38;8.88;;;6.35;;
79149;SDS011;68563;45.644;13.782;2023-03-23T10:00:36;11.50;;;5.88;;
79149;SDS011;68563;45.644;13.782;2023-03-23T10:05:47;8.93;;;6.20;;
79149;SDS011;68563;45.644;13.782;2023-03-23T10:08:18;10.95;;;6.47;;
79149;SDS011;68563;45.644;13.782;2023-03-23T10:20:00;9.13;;;6.53;;
79149;SDS011;68563;45.644;13.782;2023-03-23T10:22:32;10.27;;;6.70;;
79149;SDS011;68563;45.644;13.782;2023-03-23T10:28:37;12.77;;;7.75;;
79149;SDS011;68563;45.644;13.782;2023-03-23T10:31:04;12.70;;;8.00;;
79149;SDS011;68563;45.644;13.782;2023-03-23T10:36:11;10.10;;;7.00;;
79149;SDS011;68563;45.644;13.782;2023-03-23T10:38:48;8.05;;;6.05;;
79149;SDS011;68563;45.644;13.782;2023-03-23T10:41:20;12.95;;;7.00;;
79149;SDS011;68563;45.644;13.782;2023-03-23T10:43:46;10.27;;;7.18;;
79149;SDS011;68563;45.644;13.782;2023-03-23T10:49:12;11.55;;;7.53;;
79149;SDS011;68563;45.644;13.782;2023-03-23T10:51:43;14.75;;;7.90;;
79149;SDS011;68563;45.644;13.782;2023-03-23T10:54:24;10.52;;;7.25;;
79149;SDS011;68563;45.644;13.782;2023-03-23T10:56:52;12.63;;;7.35;;
79149;SDS011;68563;45.644;13.782;2023-03-23T10:59:19;12.40;;;8.07;;
79149;SDS011;68563;45.644;13.782;2023-03-23T11:01:51;9.27;;;7.07;;
79149;SDS011;68563;45.644;13.782;2023-03-23T11:04:19;12.10;;;6.95;;
79149;SDS011;68563;45.644;13.782;2023-03-23T11:06:47;11.40;;;6.75;;
79149;SDS011;68563;45.644;13.782;2023-03-23T11:11:43;11.75;;;6.80;;
79149;SDS011;68563;45.644;13.782;2023-03-23T11:16:59;12.15;;;6.60;;
79149;SDS011;68563;45.644;13.782;2023-03-23T11:19:32;9.82;;;6.20;;
79149;SDS011;68563;45.644;13.782;2023-03-23T11:24:33;9.35;;;5.70;;
79149;SDS011;68563;45.644;13.782;2023-03-23T11:27:01;10.68;;;6.93;;
79149;SDS011;68563;45.644;13.782;2023-03-23T11:29:32;13.55;;;7.53;;
79149;SDS011;68563;45.644;13.782;2023-03-23T11:34:25;9.03;;;6.37;;
79149;SDS011;68563;45.644;13.782;2023-03-23T11:37:02;9.77;;;6.20;;
79149;SDS011;68563;45.644;13.782;2023-03-23T11:39:54;13.77;;;7.05;;
79149;SDS011;68563;45.644;13.782;2023-03-23T11:42:25;9.27;;;6.72;;
79149;SDS011;68563;45.644;13.782;2023-03-23T11:45:17;9.35;;;6.30;;
79149;SDS011;68563;45.644;13.782;2023-03-23T11:58:06;9.20;;;6.10;;
79149;SDS011;68563;45.644;13.782;2023-03-23T12:00:37;9.25;;;6.20;;
79149;SDS011;68563;45.644;13.782;2023-03-23T12:03:11;13.13;;;7.07;;
79149;SDS011;68563;45.644;13.782;2023-03-23T12:06:09;10.45;;;6.07;;
79149;SDS011;68563;45.644;13.782;2023-03-23T12:11:35;11.02;;;6.55;;
79149;SDS011;68563;45.644;13.782;2023-03-23T12:16:54;9.68;;;6.05;;
79149;SDS011;68563;45.644;13.782;2023-03-23T12:22:46;9.98;;;5.97;;
79149;SDS011;68563;45.644;13.782;2023-03-23T12:34:00;9.40;;;5.72;;
79149;SDS011;68563;45.644;13.782;2023-03-23T12:44:50;7.80;;;5.03;;
79149;SDS011;68563;45.644;13.782;2023-03-23T12:47:35;8.85;;;5.85;;
79149;SDS011;68563;45.644;13.782;2023-03-23T12:50:31;8.93;;;6.10;;
79149;SDS011;68563;45.644;13.782;2023-03-23T12:53:13;9.80;;;5.97;;
79149;SDS011;68563;45.644;13.782;2023-03-23T12:58:46;8.40;;;5.40;;
79149;SDS011;68563;45.644;13.782;2023-03-23T13:01:18;8.13;;;5.22;;
79149;SDS011;68563;45.644;13.782;2023-03-23T13:04:04;10.18;;;5.40;;
79149;SDS011;68563;45.644;13.782;2023-03-23T13:06:35;8.25;;;5.47;;
79149;SDS011;68563;45.644;13.782;2023-03-23T13:11:39;8.82;;;4.90;;
79149;SDS011;68563;45.644;13.782;2023-03-23T13:16:44;9.45;;;5.70;;
79149;SDS011;68563;45.644;13.782;2023-03-23T13:19:23;8.07;;;4.93;;
79149;SDS011;68563;45.644;13.782;2023-03-23T13:25:10;7.38;;;3.67;;
79149;SDS011;68563;45.644;13.782;2023-03-23T13:27:40;8.95;;;4.68;;
79149;SDS011;68563;45.644;13.782;2023-03-23T13:30:17;9.48;;;4.90;;
79149;SDS011;68563;45.644;13.782;2023-03-23T13:32:49;5.80;;;4.53;;
79149;SDS011;68563;45.644;13.782;2023-03-23T13:35:16;4.40;;;3.05;;
79149;SDS011;68563;45.644;13.782;2023-03-23T13:37:50;5.82;;;3.70;;
79149;SDS011;68563;45.644;13.782;2023-03-23T13:42:53;6.72;;;3.72;;
79149;SDS011;68563;45.644;13.782;2023-03-23T13:48:20;5.97;;;4.10;;
79149;SDS011;68563;45.644;13.782;2023-03-23T13:53:31;5.43;;;4.57;;
79149;SDS011;68563;45.644;13.782;2023-03-23T13:56:47;5.57;;;3.90;;
79149;SDS011;68563;45.644;13.782;2023-03-23T14:07:51;4.80;;;3.10;;
79149;SDS011;68563;45.644;13.782;2023-03-23T14:10:24;4.45;;;3.10;;
79149;SDS011;68563;45.644;13.782;2023-03-23T14:12:56;6.03;;;3.42;;
79149;SDS011;68563;45.644;13.782;2023-03-23T14:15:28;5.53;;;3.33;;
79149;SDS011;68563;45.644;13.782;2023-03-23T14:17:55;4.68;;;3.35;;
79149;SDS011;68563;45.644;13.782;2023-03-23T14:20:24;6.68;;;4.22;;
79149;SDS011;68563;45.644;13.782;2023-03-23T14:22:55;7.85;;;4.60;;
79149;SDS011;68563;45.644;13.782;2023-03-23T14:25:21;6.85;;;4.13;;
79149;SDS011;68563;45.644;13.782;2023-03-23T14:30:19;6.50;;;4.63;;
79149;SDS011;68563;45.644;13.782;2023-03-23T14:32:46;5.43;;;3.80;;
79149;SDS011;68563;45.644;13.782;2023-03-23T14:35:25;6.97;;;4.18;;
79149;SDS011;68563;45.644;13.782;2023-03-23T14:37:55;7.78;;;3.97;;
79149;SDS011;68563;45.644;13.782;2023-03-23T14:40:21;8.50;;;4.32;;
79149;SDS011;68563;45.644;13.782;2023-03-23T14:42:50;5.72;;;3.92;;
79149;SDS011;68563;45.644;13.782;2023-03-23T14:45:19;5.32;;;4.25;;
79149;SDS011;68563;45.644;13.782;2023-03-23T14:47:47;5.53;;;4.13;;
79149;SDS011;68563;45.644;13.782;2023-03-23T14:53:11;11.57;;;5.55;;
79149;SDS011;68563;45.644;13.782;2023-03-23T14:55:36;7.53;;;4.50;;
79149;SDS011;68563;45.644;13.782;2023-03-23T14:58:06;7.50;;;3.97;;
79149;SDS011;68563;45.644;13.782;2023-03-23T15:00:35;6.65;;;3.92;;
79149;SDS011;68563;45.644;13.782;2023-03-23T15:03:04;7.15;;;4.30;;
79149;SDS011;68563;45.644;13.782;2023-03-23T15:05:36;7.60;;;4.72;;
79149;SDS011;68563;45.644;13.782;2023-03-23T15:08:07;6.20;;;4.13;;
79149;SDS011;68563;45.644;13.782;2023-03-23T15:10:38;6.80;;;3.97;;
79149;SDS011;68563;45.644;13.782;2023-03-23T15:13:04;7.13;;;3.80;;
79149;SDS011;68563;45.644;13.782;2023-03-23T15:15:31;4.00;;;2.72;;
79149;SDS011;68563;45.644;13.782;2023-03-23T15:17:58;3.17;;;2.20;;
79149;SDS011;68563;45.644;13.782;2023-03-23T15:20:26;4.72;;;3.05;;
79149;SDS011;68563;45.644;13.782;2023-03-23T15:23:04;4.55;;;2.78;;
79149;SDS011;68563;45.644;13.782;2023-03-23T15:25:32;4.18;;;3.00;;
79149;SDS011;68563;45.644;13.782;2023-03-23T15:28:21;6.50;;;3.50;;
79149;SDS011;68563;45.644;13.782;2023-03-23T15:30:55;4.18;;;2.90;;
79149;SDS011;68563;45.644;13.782;2023-03-23T15:33:25;3.33;;;2.53;;
79149;SDS011;68563;45.644;13.782;2023-03-23T15:35:55;4.38;;;3.00;;
79149;SDS011;68563;45.644;13.782;2023-03-23T15:40:52;5.32;;;3.30;;
79149;SDS011;68563;45.644;13.782;2023-03-23T15:43:20;5.50;;;4.07;;
79149;SDS011;68563;45.644;13.782;2023-03-23T15:45:53;5.50;;;3.20;;
79149;SDS011;68563;45.644;13.782;2023-03-23T15:48:28;8.02;;;3.63;;
79149;SDS011;68563;45.644;13.782;2023-03-23T15:50:54;3.72;;;3.10;;
79149;SDS011;68563;45.644;13.782;2023-03-23T15:55:53;4.50;;;3.40;;
79149;SDS011;68563;45.644;13.782;2023-03-23T15:58:18;4.47;;;3.28;;
79149;SDS011;68563;45.644;13.782;2023-03-23T16:00:44;4.90;;;3.95;;
79149;SDS011;68563;45.644;13.782;2023-03-23T16:03:13;6.93;;;3.53;;
79149;SDS011;68563;45.644;13.782;2023-03-23T16:05:44;5.70;;;4.20;;
79149;SDS011;68563;45.644;13.782;2023-03-23T16:08:10;6.20;;;3.70;;
79149;SDS011;68563;45.644;13.782;2023-03-23T16:10:36;4.82;;;3.63;;
79149;SDS011;68563;45.644;13.782;2023-03-23T16:13:01;4.28;;;3.20;;
79149;SDS011;68563;45.644;13.782;2023-03-23T16:15:29;6.80;;;3.53;;
79149;SDS011;68563;45.644;13.782;2023-03-23T16:17:54;3.83;;;3.17;;
79149;SDS011;68563;45.644;13.782;2023-03-23T16:20:21;4.47;;;2.83;;
79149;SDS011;68563;45.644;13.782;2023-03-23T16:22:47;4.82;;;3.72;;
79149;SDS011;68563;45.644;13.782;2023-03-23T16:25:14;4.07;;;3.35;;
79149;SDS011;68563;45.644;13.782;2023-03-23T16:27:40;5.93;;;3.40;;
79149;SDS011;68563;45.644;13.782;2023-03-23T16:30:17;5.82;;;3.70;;
79149;SDS011;68563;45.644;13.782;2023-03-23T16:32:43;7.55;;;4.00;;
79149;SDS011;68563;45.644;13.782;2023-03-23T16:35:09;5.65;;;3.20;;
79149;SDS011;68563;45.644;13.782;2023-03-23T16:37:35;7.32;;;3.95;;
79149;SDS011;68563;45.644;13.782;2023-03-23T16:40:01;5.43;;;3.78;;
79149;SDS011;68563;45.644;13.782;2023-03-23T16:42:28;4.88;;;3.45;;
79149;SDS011;68563;45.644;13.782;2023-03-23T16:44:53;5.07;;;3.10;;
79149;SDS011;68563;45.644;13.782;2023-03-23T16:47:19;6.78;;;3.40;;
79149;SDS011;68563;45.644;13.782;2023-03-23T16:49:47;5.03;;;3.40;;
79149;SDS011;68563;45.644;13.782;2023-03-23T16:52:13;8.45;;;3.58;;
79149;SDS011;68563;45.644;13.782;2023-03-23T16:54:38;5.72;;;3.47;;
79149;SDS011;68563;45.644;13.782;2023-03-23T16:57:04;9.70;;;5.43;;
79149;SDS011;68563;45.644;13.782;2023-03-23T16:59:30;8.48;;;4.68;;